Time;durP1;ratioP1;P1;durP2;ratioP2;P2;SDS_P1;SDS_P2;PMS_P1;PMS_P2;Temp;Humidity;BMP_temperature;BMP_pressure;BME280_temperature;BME280_humidity;BME280_pressure;Samples;Min_cycle;Max_cycle;Signal;HPM_P1;HPM_P2
2022/06/08 00:01:37;;;;;;;34.13;30.80;;;;;;;;;;5286155;28;20020;-82
2022/06/08 00:04:10;;;;;;;35.57;32.17;;;;;;;;;;5282936;28;20016;-82
2022/06/08 00:06:42;;;;;;;35.13;31.83;;;;;;;;;;5291893;28;20085;-80
2022/06/08 00:09:13;;;;;;;33.73;30.43;;;;;;;;;;5295766;28;20016;-81
2022/06/08 00:11:45;;;;;;;33.47;30.03;;;;;;;;;;5287723;28;20494;-81
2022/06/08 00:14:16;;;;;;;33.83;30.47;;;;;;;;;;5276931;28;20024;-81
2022/06/08 00:16:48;;;;;;;34.20;30.87;;;;;;;;;;5298237;28;20143;-80
2022/06/08 00:19:19;;;;;;;34.63;31.43;;;;;;;;;;5296724;28;20098;-80
2022/06/08 00:21:51;;;;;;;34.10;30.80;;;;;;;;;;5277895;28;20123;-80
2022/06/08 00:24:22;;;;;;;35.63;32.20;;;;;;;;;;5279090;28;20414;-81
2022/06/08 00:26:53;;;;;;;34.43;31.20;;;;;;;;;;5287350;28;20024;-82
2022/06/08 00:29:25;;;;;;;33.67;30.43;;;;;;;;;;5277902;28;20008;-81
2022/06/08 00:31:56;;;;;;;35.27;31.60;;;;;;;;;;5285039;28;20016;-80
2022/06/08 00:34:27;;;;;;;34.27;30.97;;;;;;;;;;5279502;28;20096;-81
2022/06/08 00:36:59;;;;;;;33.60;30.43;;;;;;;;;;5283774;28;20028;-82
2022/06/08 00:39:30;;;;;;;34.30;30.70;;;;;;;;;;5285366;28;20021;-81
2022/06/08 00:42:06;;;;;;;33.63;30.43;;;;;;;;;;5284127;28;20065;-82
2022/06/08 00:44:37;;;;;;;34.30;30.90;;;;;;;;;;5277881;28;20601;-80
2022/06/08 00:47:09;;;;;;;35.70;31.97;;;;;;;;;;5277272;28;20102;-81
2022/06/08 00:49:41;;;;;;;35.33;31.90;;;;;;;;;;5278544;28;20028;-81
2022/06/08 00:52:13;;;;;;;34.23;30.83;;;;;;;;;;5279873;28;20479;-81
2022/06/08 00:54:50;;;;;;;34.27;30.80;;;;;;;;;;5279082;28;20012;-81
2022/06/08 00:57:33;;;;;;;34.00;30.70;;;;;;;;;;5277846;28;20028;-81
2022/06/08 01:00:13;;;;;;;31.87;28.77;;;;;;;;;;5278627;28;20059;-81
2022/06/08 01:02:44;;;;;;;33.50;30.10;;;;;;;;;;5291607;28;20024;-80
2022/06/08 01:05:17;;;;;;;33.23;29.50;;;;;;;;;;5282457;28;20009;-80
2022/06/08 01:07:49;;;;;;;32.27;29.00;;;;;;;;;;5278896;28;20028;-80
2022/06/08 01:10:23;;;;;;;32.87;29.57;;;;;;;;;;5288260;28;20043;-80
2022/06/08 01:12:56;;;;;;;31.98;28.73;;;;;;;;;;5293962;28;20024;-80
2022/06/08 01:15:27;;;;;;;30.83;27.93;;;;;;;;;;5295388;28;20041;-80
2022/06/08 01:17:59;;;;;;;31.23;28.13;;;;;;;;;;5283246;28;20020;-79
2022/06/08 01:20:30;;;;;;;32.30;28.97;;;;;;;;;;5298540;28;20027;-80
2022/06/08 01:23:01;;;;;;;30.20;27.30;;;;;;;;;;5279252;28;20013;-79
2022/06/08 01:25:33;;;;;;;31.20;28.17;;;;;;;;;;5276607;28;20059;-79
2022/06/08 01:28:09;;;;;;;33.27;29.60;;;;;;;;;;5295192;28;20031;-80
2022/06/08 01:30:52;;;;;;;31.03;28.13;;;;;;;;;;5289948;28;20024;-79
2022/06/08 01:33:26;;;;;;;31.73;28.50;;;;;;;;;;5277709;28;20036;-79
2022/06/08 01:36:19;;;;;;;32.58;29.35;;;;;;;;;;5277320;28;20032;-80
2022/06/08 01:39:05;;;;;;;32.60;29.20;;;;;;;;;;5277318;28;20025;-80
2022/06/08 01:41:36;;;;;;;31.40;28.27;;;;;;;;;;5279940;28;20012;-80
2022/06/08 01:44:27;;;;;;;31.10;27.80;;;;;;;;;;5284986;28;20016;-79
2022/06/08 01:47:22;;;;;;;31.40;28.20;;;;;;;;;;5290126;28;20466;-79
2022/06/08 01:49:56;;;;;;;31.15;27.95;;;;;;;;;;5276336;28;20027;-80
2022/06/08 01:52:36;;;;;;;29.67;26.77;;;;;;;;;;5290185;28;20024;-79
2022/06/08 01:55:13;;;;;;;27.53;24.73;;;;;;;;;;5298066;28;20740;-80
2022/06/08 01:57:44;;;;;;;26.87;23.97;;;;;;;;;;5295246;28;20016;-80
2022/06/08 02:00:18;;;;;;;25.67;23.07;;;;;;;;;;5294123;28;20464;-80
2022/06/08 02:03:00;;;;;;;26.30;23.58;;;;;;;;;;5278000;28;20021;-80
2022/06/08 02:05:50;;;;;;;23.13;20.93;;;;;;;;;;5289173;28;20396;-81
2022/06/08 02:08:40;;;;;;;25.60;22.90;;;;;;;;;;5290557;28;20027;-80
2022/06/08 02:11:18;;;;;;;22.90;20.67;;;;;;;;;;5295598;28;20507;-80
2022/06/08 02:13:55;;;;;;;22.90;18.97;;;;;;;;;;5280506;28;20027;-80
2022/06/08 02:16:38;;;;;;;23.80;20.07;;;;;;;;;;5297780;28;20056;-81
2022/06/08 02:19:17;;;;;;;21.80;19.67;;;;;;;;;;5297502;28;20103;-81
2022/06/08 02:21:51;;;;;;;20.93;18.87;;;;;;;;;;5293976;28;20089;-79
2022/06/08 02:24:44;;;;;;;19.85;17.95;;;;;;;;;;5296770;28;20380;-79
2022/06/08 02:27:25;;;;;;;23.90;19.10;;;;;;;;;;5286779;28;20099;-81
2022/06/08 02:30:04;;;;;;;20.77;18.67;;;;;;;;;;5278863;28;20087;-80
2022/06/08 02:35:32;;;;;;;21.83;17.50;;;;;;;;;;5277018;28;20345;-80
2022/06/08 02:38:08;;;;;;;19.17;17.05;;;;;;;;;;5275649;28;20029;-80
2022/06/08 02:40:45;;;;;;;19.53;17.50;;;;;;;;;;5282055;28;20024;-80
2022/06/08 02:43:22;;;;;;;17.67;15.87;;;;;;;;;;5277784;28;20016;-81
2022/06/08 02:46:01;;;;;;;19.60;15.90;;;;;;;;;;5297342;28;20031;-80
2022/06/08 02:48:33;;;;;;;16.50;14.90;;;;;;;;;;5295633;28;20036;-81
2022/06/08 02:51:04;;;;;;;18.20;15.43;;;;;;;;;;5296810;28;20340;-81
2022/06/08 02:53:53;;;;;;;15.87;14.13;;;;;;;;;;5297311;28;20024;-81
2022/06/08 02:56:43;;;;;;;15.77;14.27;;;;;;;;;;5279571;28;20028;-80
2022/06/08 02:59:19;;;;;;;16.87;15.20;;;;;;;;;;5281754;28;20025;-81
2022/06/08 03:02:03;;;;;;;15.73;13.80;;;;;;;;;;5277098;28;20460;-81
2022/06/08 03:04:41;;;;;;;18.00;14.63;;;;;;;;;;5275993;28;20536;-80
2022/06/08 03:07:18;;;;;;;16.17;14.53;;;;;;;;;;5277046;28;20447;-81
2022/06/08 03:09:50;;;;;;;15.30;13.90;;;;;;;;;;5282115;28;20056;-79
2022/06/08 03:12:47;;;;;;;15.30;13.80;;;;;;;;;;5277715;28;20063;-81
2022/06/08 03:15:22;;;;;;;18.23;13.03;;;;;;;;;;5258606;28;20094;-81
2022/06/08 03:17:53;;;;;;;14.32;12.23;;;;;;;;;;5291732;28;20016;-81
2022/06/08 03:20:25;;;;;;;14.20;12.33;;;;;;;;;;5296612;28;20062;-81
2022/06/08 03:22:57;;;;;;;13.33;11.93;;;;;;;;;;5294804;28;20020;-80
2022/06/08 03:25:28;;;;;;;18.77;13.07;;;;;;;;;;5296026;28;20478;-82
2022/06/08 03:27:59;;;;;;;12.50;11.20;;;;;;;;;;5278634;28;20395;-79
2022/06/08 03:30:31;;;;;;;16.17;11.83;;;;;;;;;;5296985;28;20114;-81
2022/06/08 03:33:02;;;;;;;12.60;11.40;;;;;;;;;;5280754;28;20021;-81
2022/06/08 03:35:33;;;;;;;15.53;11.07;;;;;;;;;;5274870;28;20024;-80
2022/06/08 03:38:05;;;;;;;12.17;10.93;;;;;;;;;;5275435;28;20026;-80
2022/06/08 03:40:36;;;;;;;12.07;10.43;;;;;;;;;;5274078;28;20021;-80
2022/06/08 03:43:07;;;;;;;11.83;10.63;;;;;;;;;;5290251;28;20118;-80
2022/06/08 03:45:40;;;;;;;11.43;10.30;;;;;;;;;;5296099;28;20067;-80
2022/06/08 03:48:12;;;;;;;12.70;10.40;;;;;;;;;;5276714;28;20028;-80
2022/06/08 03:50:44;;;;;;;12.27;10.63;;;;;;;;;;5278384;28;20021;-81
2022/06/08 03:53:21;;;;;;;12.13;10.70;;;;;;;;;;5290070;28;20017;-81
2022/06/08 03:55:53;;;;;;;10.80;9.70;;;;;;;;;;5278991;28;20047;-80
2022/06/08 03:58:25;;;;;;;10.73;9.67;;;;;;;;;;5296889;28;20052;-80
2022/06/08 04:00:56;;;;;;;10.30;9.23;;;;;;;;;;5294507;28;20105;-80
2022/06/08 04:03:27;;;;;;;13.00;9.27;;;;;;;;;;5283342;28;20031;-81
2022/06/08 04:06:00;;;;;;;10.83;8.60;;;;;;;;;;5279953;28;20020;-81
2022/06/08 04:08:32;;;;;;;11.50;9.43;;;;;;;;;;5283130;28;20089;-81
2022/06/08 04:11:03;;;;;;;9.67;8.47;;;;;;;;;;5294623;28;20017;-81
2022/06/08 04:13:34;;;;;;;11.87;9.13;;;;;;;;;;5298926;28;20047;-81
2022/06/08 04:16:05;;;;;;;11.00;8.97;;;;;;;;;;5300195;28;20074;-81
2022/06/08 04:18:37;;;;;;;9.90;8.87;;;;;;;;;;5287224;28;20376;-81
2022/06/08 04:21:09;;;;;;;11.37;7.80;;;;;;;;;;5279497;28;20066;-81
2022/06/08 04:23:42;;;;;;;10.27;8.17;;;;;;;;;;5278848;28;20020;-81
2022/06/08 04:26:14;;;;;;;9.63;7.67;;;;;;;;;;5280811;28;20059;-81
2022/06/08 04:28:45;;;;;;;9.47;7.73;;;;;;;;;;5293392;28;20036;-82
2022/06/08 04:31:17;;;;;;;9.87;8.17;;;;;;;;;;5283551;28;20085;-81
2022/06/08 04:33:49;;;;;;;7.40;6.67;;;;;;;;;;5298515;28;20099;-81
2022/06/08 04:36:21;;;;;;;13.60;7.70;;;;;;;;;;5294244;28;20034;-80
2022/06/08 04:38:52;;;;;;;7.97;7.17;;;;;;;;;;5287127;28;20467;-80
2022/06/08 04:41:27;;;;;;;10.97;8.30;;;;;;;;;;5295363;28;20509;-80
2022/06/08 04:43:58;;;;;;;8.10;7.30;;;;;;;;;;5297072;28;20081;-81
2022/06/08 04:46:30;;;;;;;12.73;7.20;;;;;;;;;;5298414;28;20020;-81
2022/06/08 04:49:01;;;;;;;9.23;7.83;;;;;;;;;;5293497;28;20391;-80
2022/06/08 04:51:33;;;;;;;7.97;7.10;;;;;;;;;;5287385;28;20019;-81
2022/06/08 04:54:05;;;;;;;7.67;6.87;;;;;;;;;;5299352;28;20024;-81
2022/06/08 04:56:36;;;;;;;8.43;7.37;;;;;;;;;;5296357;28;20024;-80
2022/06/08 04:59:09;;;;;;;7.63;6.83;;;;;;;;;;5296123;28;20685;-81
2022/06/08 05:01:40;;;;;;;7.57;6.60;;;;;;;;;;5277139;28;20013;-80
2022/06/08 05:04:12;;;;;;;8.73;6.63;;;;;;;;;;5298574;28;20482;-81
2022/06/08 05:06:44;;;;;;;9.87;6.80;;;;;;;;;;5299625;28;20099;-80
2022/06/08 05:09:19;;;;;;;8.07;6.33;;;;;;;;;;5284280;28;20048;-81
2022/06/08 05:11:50;;;;;;;9.68;6.55;;;;;;;;;;5277368;28;20031;-81
2022/06/08 05:14:21;;;;;;;6.80;5.43;;;;;;;;;;5277674;28;20001;-80
2022/06/08 05:16:52;;;;;;;6.27;5.13;;;;;;;;;;5291726;28;20066;-80
2022/06/08 05:19:24;;;;;;;7.40;5.70;;;;;;;;;;5298428;28;20051;-80
2022/06/08 05:21:55;;;;;;;7.10;5.90;;;;;;;;;;5288561;28;20023;-81
2022/06/08 05:24:26;;;;;;;8.97;6.00;;;;;;;;;;5280545;28;20108;-82
2022/06/08 05:26:57;;;;;;;6.23;5.00;;;;;;;;;;5298111;28;20016;-81
2022/06/08 05:29:29;;;;;;;6.87;5.23;;;;;;;;;;5291717;28;20020;-81
2022/06/08 05:32:00;;;;;;;9.30;4.90;;;;;;;;;;5278083;28;20096;-82
2022/06/08 05:34:31;;;;;;;6.37;5.30;;;;;;;;;;5292257;28;20050;-79
2022/06/08 05:37:03;;;;;;;6.60;5.77;;;;;;;;;;5294956;28;20024;-79
2022/06/08 05:39:34;;;;;;;9.93;5.83;;;;;;;;;;5277648;28;20032;-79
2022/06/08 05:42:05;;;;;;;10.17;4.87;;;;;;;;;;5279743;28;20356;-80
2022/06/08 05:44:36;;;;;;;7.80;5.37;;;;;;;;;;5292147;28;20020;-80
2022/06/08 05:47:07;;;;;;;6.47;5.17;;;;;;;;;;5298051;28;20020;-79
2022/06/08 05:49:40;;;;;;;6.50;4.90;;;;;;;;;;5290381;28;20025;-79
2022/06/08 05:52:12;;;;;;;5.50;4.40;;;;;;;;;;5285361;28;20386;-79
2022/06/08 05:54:43;;;;;;;6.07;4.40;;;;;;;;;;5290777;28;20020;-79
2022/06/08 05:57:15;;;;;;;7.83;4.63;;;;;;;;;;5276842;28;20031;-79
2022/06/08 05:59:46;;;;;;;6.40;4.57;;;;;;;;;;5297972;28;20425;-79
2022/06/08 06:02:17;;;;;;;6.83;4.97;;;;;;;;;;5276387;28;20023;-80
2022/06/08 06:04:48;;;;;;;6.17;4.67;;;;;;;;;;5276792;28;20007;-79
2022/06/08 06:07:20;;;;;;;4.60;4.10;;;;;;;;;;5279738;28;20044;-79
2022/06/08 06:09:51;;;;;;;7.50;4.60;;;;;;;;;;5277892;28;20472;-79
2022/06/08 06:12:22;;;;;;;6.70;4.53;;;;;;;;;;5276388;28;20100;-79
2022/06/08 06:14:54;;;;;;;4.97;3.73;;;;;;;;;;5274861;28;20032;-79
2022/06/08 06:17:25;;;;;;;6.23;4.47;;;;;;;;;;5276460;28;20043;-79
2022/06/08 06:19:57;;;;;;;7.90;4.30;;;;;;;;;;5275084;28;20021;-80
2022/06/08 06:22:32;;;;;;;7.77;4.50;;;;;;;;;;5277217;28;20040;-79
2022/06/08 06:25:04;;;;;;;8.67;4.20;;;;;;;;;;5288699;28;20029;-78
2022/06/08 06:27:35;;;;;;;7.77;4.43;;;;;;;;;;5283717;28;20028;-78
2022/06/08 06:30:07;;;;;;;8.97;4.53;;;;;;;;;;5285066;28;20020;-79
2022/06/08 06:32:39;;;;;;;9.97;4.77;;;;;;;;;;5286883;28;20030;-79
2022/06/08 06:35:31;;;;;;;8.50;4.53;;;;;;;;;;5281899;28;20021;-80
2022/06/08 06:38:03;;;;;;;8.33;4.23;;;;;;;;;;5301275;28;20031;-80
2022/06/08 06:40:35;;;;;;;6.70;4.30;;;;;;;;;;5296586;28;20020;-81
2022/06/08 06:43:06;;;;;;;9.37;5.17;;;;;;;;;;5289001;28;20016;-81
2022/06/08 06:45:37;;;;;;;8.43;3.70;;;;;;;;;;5290938;28;20016;-81
2022/06/08 06:48:08;;;;;;;6.63;4.07;;;;;;;;;;5290591;28;20620;-81
2022/06/08 06:50:39;;;;;;;11.77;4.93;;;;;;;;;;5295286;28;20108;-81
2022/06/08 06:53:12;;;;;;;5.97;4.10;;;;;;;;;;5283418;28;20448;-80
2022/06/08 06:55:43;;;;;;;7.43;3.57;;;;;;;;;;5279001;28;20016;-80
2022/06/08 06:58:14;;;;;;;6.33;3.27;;;;;;;;;;5285848;28;20531;-77
2022/06/08 07:00:46;;;;;;;6.30;3.30;;;;;;;;;;5290346;28;20087;-79
2022/06/08 07:03:17;;;;;;;7.33;2.93;;;;;;;;;;5285648;28;20506;-81
2022/06/08 07:05:48;;;;;;;7.07;3.03;;;;;;;;;;5278420;28;20011;-82
2022/06/08 07:08:19;;;;;;;5.77;3.07;;;;;;;;;;5293332;28;20177;-80
2022/06/08 07:13:41;;;;;;;7.60;2.97;;;;;;;;;;5297378;28;20444;-81
2022/06/08 07:16:14;;;;;;;8.17;2.80;;;;;;;;;;5296000;28;20040;-81
2022/06/08 07:18:46;;;;;;;6.47;2.60;;;;;;;;;;5297199;28;20069;-82
2022/06/08 07:21:20;;;;;;;4.83;2.87;;;;;;;;;;5302639;28;20020;-81
2022/06/08 07:23:52;;;;;;;5.57;2.87;;;;;;;;;;5290597;28;20020;-80
2022/06/08 07:26:28;;;;;;;5.90;2.50;;;;;;;;;;5284715;28;20027;-76
2022/06/08 07:28:59;;;;;;;5.70;2.37;;;;;;;;;;5281508;28;20084;-77
2022/06/08 07:31:30;;;;;;;6.87;2.67;;;;;;;;;;5284992;28;20023;-78
2022/06/08 07:34:01;;;;;;;5.27;2.27;;;;;;;;;;5283387;28;20024;-78
2022/06/08 07:36:33;;;;;;;6.43;2.30;;;;;;;;;;5280300;28;20460;-78
2022/06/08 07:39:04;;;;;;;8.20;2.87;;;;;;;;;;5283626;28;20028;-77
2022/06/08 07:41:36;;;;;;;7.68;2.20;;;;;;;;;;5283968;28;20020;-78
2022/06/08 07:44:07;;;;;;;10.15;2.45;;;;;;;;;;5283475;28;20016;-77
2022/06/08 07:46:38;;;;;;;7.47;2.38;;;;;;;;;;5280063;28;20024;-76
2022/06/08 07:52:15;;;;;;;7.63;2.35;;;;;;;;;;5284623;28;20040;-77
2022/06/08 07:54:47;;;;;;;5.57;2.20;;;;;;;;;;5283542;28;20100;-78
2022/06/08 07:57:21;;;;;;;5.82;1.73;;;;;;;;;;5280500;28;20057;-77
2022/06/08 07:59:52;;;;;;;8.13;2.03;;;;;;;;;;5284770;28;20024;-78
2022/06/08 08:02:23;;;;;;;7.15;2.47;;;;;;;;;;5283487;28;20085;-78
2022/06/08 08:04:55;;;;;;;5.57;2.30;;;;;;;;;;5283641;28;20023;-79
2022/06/08 08:07:26;;;;;;;8.23;2.20;;;;;;;;;;5279869;28;20046;-78
2022/06/08 08:09:57;;;;;;;6.13;2.42;;;;;;;;;;5283947;28;20024;-77
2022/06/08 08:12:29;;;;;;;5.77;2.23;;;;;;;;;;5282857;28;20043;-77
2022/06/08 08:15:00;;;;;;;7.67;2.20;;;;;;;;;;5283656;28;20028;-78
2022/06/08 08:17:32;;;;;;;6.83;2.30;;;;;;;;;;5280945;28;20067;-78
2022/06/08 08:20:04;;;;;;;4.73;1.93;;;;;;;;;;5281847;28;20447;-75
2022/06/08 08:22:36;;;;;;;10.87;2.80;;;;;;;;;;5282271;28;20047;-76
2022/06/08 08:25:09;;;;;;;6.67;2.70;;;;;;;;;;5284618;28;20036;-77
2022/06/08 08:27:41;;;;;;;9.60;2.83;;;;;;;;;;5281046;28;20135;-77
2022/06/08 08:30:13;;;;;;;9.87;2.50;;;;;;;;;;5286598;28;20032;-77
2022/06/08 08:32:44;;;;;;;14.37;3.23;;;;;;;;;;5294150;28;20008;-77
2022/06/08 08:35:16;;;;;;;9.57;3.00;;;;;;;;;;5294270;28;20378;-76
2022/06/08 08:37:48;;;;;;;7.87;2.27;;;;;;;;;;5293366;28;20019;-77
2022/06/08 08:40:43;;;;;;;9.43;2.50;;;;;;;;;;5278637;28;20024;-77
2022/06/08 08:43:16;;;;;;;10.50;2.77;;;;;;;;;;5293945;28;20016;-77
2022/06/08 08:46:26;;;;;;;6.60;2.10;;;;;;;;;;5299320;28;20023;-77
2022/06/08 08:49:12;;;;;;;6.67;2.37;;;;;;;;;;5273642;28;20062;-77
2022/06/08 08:51:45;;;;;;;7.17;2.47;;;;;;;;;;5270282;28;20093;-77
2022/06/08 08:54:16;;;;;;;7.30;2.47;;;;;;;;;;5284377;28;20049;-77
2022/06/08 08:56:48;;;;;;;7.30;2.23;;;;;;;;;;5295738;28;20039;-77
2022/06/08 08:59:24;;;;;;;7.57;3.40;;;;;;;;;;5296943;28;20087;-77
2022/06/08 09:01:55;;;;;;;9.67;2.63;;;;;;;;;;5296620;28;20051;-77
2022/06/08 09:04:32;;;;;;;7.13;3.03;;;;;;;;;;5298397;28;20044;-77
2022/06/08 09:07:13;;;;;;;8.87;2.90;;;;;;;;;;5295419;28;20024;-76
2022/06/08 09:09:45;;;;;;;8.20;2.00;;;;;;;;;;5279146;28;20036;-77
2022/06/08 09:12:20;;;;;;;13.50;2.43;;;;;;;;;;5297227;28;20055;-77
2022/06/08 09:14:57;;;;;;;8.00;2.60;;;;;;;;;;5296940;28;20027;-77
2022/06/08 09:18:02;;;;;;;11.93;2.53;;;;;;;;;;5294546;28;20319;-78
2022/06/08 09:20:35;;;;;;;11.65;2.83;;;;;;;;;;5274911;28;20036;-77
2022/06/08 09:23:20;;;;;;;5.82;3.45;;;;;;;;;;5290044;28;20086;-77
2022/06/08 09:26:03;;;;;;;6.73;2.57;;;;;;;;;;5277766;28;20024;-78
2022/06/08 09:28:34;;;;;;;6.30;2.07;;;;;;;;;;5297087;28;20020;-76
2022/06/08 09:31:21;;;;;;;6.30;2.53;;;;;;;;;;5297437;28;20460;-77
2022/06/08 09:34:04;;;;;;;8.83;3.27;;;;;;;;;;5296928;28;20024;-77
2022/06/08 09:36:36;;;;;;;8.10;2.83;;;;;;;;;;5293889;28;20491;-77
2022/06/08 09:39:10;;;;;;;8.93;2.60;;;;;;;;;;5295665;28;20024;-77
2022/06/08 09:41:51;;;;;;;10.80;3.10;;;;;;;;;;5288692;28;20421;-77
2022/06/08 09:44:27;;;;;;;10.80;2.60;;;;;;;;;;5295734;28;20380;-76
2022/06/08 09:52:58;;;;;;;10.77;2.80;;;;;;;;;;5297226;28;20035;-77
2022/06/08 09:55:36;;;;;;;7.43;2.03;;;;;;;;;;5295243;28;20035;-77
2022/06/08 09:58:17;;;;;;;10.20;2.60;;;;;;;;;;5294651;28;20032;-77
2022/06/08 10:01:03;;;;;;;10.30;2.53;;;;;;;;;;5296828;28;20368;-76
2022/06/08 10:03:34;;;;;;;8.87;2.47;;;;;;;;;;5314128;28;20344;-77
2022/06/08 10:06:18;;;;;;;8.80;2.94;;;;;;;;;;5293932;28;20020;-77
2022/06/08 10:09:07;;;;;;;9.98;3.13;;;;;;;;;;5296922;28;20052;-77
2022/06/08 10:11:58;;;;;;;8.90;3.03;;;;;;;;;;5283437;28;20028;-77
2022/06/08 10:14:41;;;;;;;9.17;2.50;;;;;;;;;;5274248;28;20020;-75
2022/06/08 10:17:18;;;;;;;13.45;3.20;;;;;;;;;;5278051;28;20048;-77
2022/06/08 10:19:52;;;;;;;11.20;3.20;;;;;;;;;;5289972;28;20032;-76
2022/06/08 10:22:27;;;;;;;12.32;3.75;;;;;;;;;;5279869;28;20021;-76
2022/06/08 10:25:12;;;;;;;8.60;3.00;;;;;;;;;;5274029;28;20024;-76
2022/06/08 10:28:04;;;;;;;10.43;3.53;;;;;;;;;;5281628;28;20011;-77
2022/06/08 10:30:51;;;;;;;12.03;3.33;;;;;;;;;;5295852;28;20020;-77
2022/06/08 10:33:29;;;;;;;9.77;3.60;;;;;;;;;;5294623;28;20020;-77
2022/06/08 10:36:01;;;;;;;12.97;3.77;;;;;;;;;;5278645;28;20046;-76
2022/06/08 10:38:34;;;;;;;8.43;3.33;;;;;;;;;;5295972;28;20181;-77
2022/06/08 10:44:03;;;;;;;10.93;3.50;;;;;;;;;;5289789;28;20023;-78
2022/06/08 10:46:44;;;;;;;9.97;3.57;;;;;;;;;;5303023;28;20020;-77
2022/06/08 10:49:31;;;;;;;10.70;4.60;;;;;;;;;;5295724;28;20085;-78
2022/06/08 10:52:11;;;;;;;13.57;3.03;;;;;;;;;;5281448;28;20019;-77
2022/06/08 10:54:55;;;;;;;9.27;2.83;;;;;;;;;;5287287;28;20020;-78
2022/06/08 10:57:44;;;;;;;12.63;3.53;;;;;;;;;;5292828;28;20027;-76
2022/06/08 11:00:18;;;;;;;11.43;2.50;;;;;;;;;;5294331;28;20348;-76
2022/06/08 11:02:59;;;;;;;8.38;2.65;;;;;;;;;;5294787;28;20062;-76
2022/06/08 11:05:30;;;;;;;6.43;2.50;;;;;;;;;;5310830;28;20032;-78
2022/06/08 11:08:02;;;;;;;6.40;2.40;;;;;;;;;;5293632;28;20364;-77
2022/06/08 11:10:52;;;;;;;7.98;3.20;;;;;;;;;;5293731;28;20030;-77
2022/06/08 11:13:27;;;;;;;9.83;2.93;;;;;;;;;;5292844;28;20031;-78
2022/06/08 11:16:06;;;;;;;6.80;1.90;;;;;;;;;;5292653;28;20110;-76
2022/06/08 11:18:38;;;;;;;7.20;2.20;;;;;;;;;;5295170;28;20067;-77
2022/06/08 11:21:13;;;;;;;7.47;2.57;;;;;;;;;;5284880;28;20147;-77
2022/06/08 11:23:54;;;;;;;9.50;2.90;;;;;;;;;;5289473;28;20016;-78
2022/06/08 11:26:25;;;;;;;8.13;2.60;;;;;;;;;;5279047;28;20098;-78
2022/06/08 11:29:21;;;;;;;11.13;3.53;;;;;;;;;;5277404;28;20070;-78
2022/06/08 11:31:53;;;;;;;9.23;2.50;;;;;;;;;;5279844;28;20660;-78
2022/06/08 11:34:31;;;;;;;7.57;2.67;;;;;;;;;;5293407;28;20024;-77
2022/06/08 11:37:14;;;;;;;8.57;2.57;;;;;;;;;;5281987;28;20073;-78
2022/06/08 11:40:04;;;;;;;7.27;2.97;;;;;;;;;;5280175;28;20019;-78
2022/06/08 11:42:37;;;;;;;8.37;2.50;;;;;;;;;;5293792;28;20025;-77
2022/06/08 11:45:13;;;;;;;11.00;3.17;;;;;;;;;;5295250;28;20012;-77
2022/06/08 11:48:01;;;;;;;20.47;3.63;;;;;;;;;;5292400;28;20095;-77
2022/06/08 11:50:43;;;;;;;8.70;3.17;;;;;;;;;;5294910;28;20450;-77
2022/06/08 11:53:16;;;;;;;9.77;2.60;;;;;;;;;;5294471;28;20095;-77
2022/06/08 11:55:54;;;;;;;8.70;3.40;;;;;;;;;;5291768;28;20020;-77
2022/06/08 11:58:28;;;;;;;9.30;2.30;;;;;;;;;;5295330;28;20470;-77
2022/06/08 12:01:02;;;;;;;6.43;1.88;;;;;;;;;;5294619;28;20167;-76
2022/06/08 12:03:34;;;;;;;6.63;2.55;;;;;;;;;;5293633;28;20015;-78
2022/06/08 12:06:08;;;;;;;7.77;2.70;;;;;;;;;;5292328;28;20016;-78
2022/06/08 12:08:42;;;;;;;7.25;2.17;;;;;;;;;;5292896;28;20103;-78
2022/06/08 12:11:14;;;;;;;4.70;1.92;;;;;;;;;;5296431;28;20525;-77
2022/06/08 12:13:53;;;;;;;5.30;2.23;;;;;;;;;;5285446;28;20049;-76
2022/06/08 12:16:27;;;;;;;8.53;2.27;;;;;;;;;;5296107;28;20052;-76
2022/06/08 12:19:13;;;;;;;8.43;2.47;;;;;;;;;;5295147;28;20020;-77
2022/06/08 12:21:46;;;;;;;10.67;3.47;;;;;;;;;;5282777;28;20012;-77
2022/06/08 12:24:17;;;;;;;5.60;1.92;;;;;;;;;;5297942;28;20724;-77
2022/06/08 12:27:07;;;;;;;6.27;1.97;;;;;;;;;;5296377;28;20024;-77
2022/06/08 12:29:45;;;;;;;6.97;2.93;;;;;;;;;;5297448;28;20020;-77
2022/06/08 12:32:18;;;;;;;4.30;2.10;;;;;;;;;;5287822;28;20044;-77
2022/06/08 12:34:53;;;;;;;6.72;2.63;;;;;;;;;;5293281;28;20028;-78
2022/06/08 12:37:24;;;;;;;;;;;;;;;;;;5295350;28;20099;-78
2022/06/08 12:39:56;;;;;;;8.70;3.20;;;;;;;;;;5297270;28;19994;-78
2022/06/08 12:42:32;;;;;;;7.67;2.60;;;;;;;;;;5298050;28;20302;-77
2022/06/08 12:45:03;;;;;;;9.70;3.00;;;;;;;;;;5287585;28;20024;-77
2022/06/08 12:47:42;;;;;;;8.73;2.83;;;;;;;;;;5288088;28;20016;-78
2022/06/08 12:50:18;;;;;;;6.73;2.50;;;;;;;;;;5283656;28;20074;-78
2022/06/08 12:52:49;;;;;;;8.23;2.90;;;;;;;;;;5290937;28;20016;-78
2022/06/08 12:55:22;;;;;;;8.23;3.20;;;;;;;;;;5282138;28;20028;-78
2022/06/08 12:57:53;;;;;;;8.03;2.30;;;;;;;;;;5294067;28;20103;-78
2022/06/08 13:00:27;;;;;;;7.77;3.07;;;;;;;;;;5295277;28;20103;-79
2022/06/08 13:02:59;;;;;;;7.15;2.55;;;;;;;;;;5299157;28;20112;-77
2022/06/08 13:05:32;;;;;;;9.50;4.60;;;;;;;;;;5293880;28;20021;-78
2022/06/08 13:08:03;;;;;;;8.30;3.00;;;;;;;;;;5294871;28;20359;-77
2022/06/08 13:10:34;;;;;;;6.80;2.77;;;;;;;;;;5293461;28;20020;-77
2022/06/08 13:13:09;;;;;;;7.87;2.77;;;;;;;;;;5295369;28;20012;-77
2022/06/08 13:15:40;;;;;;;4.90;2.50;;;;;;;;;;5295225;28;20059;-76
2022/06/08 13:18:16;;;;;;;6.97;2.70;;;;;;;;;;5296878;28;20119;-77
2022/06/08 13:20:47;;;;;;;5.53;2.80;;;;;;;;;;5292113;28;20013;-77
2022/06/08 13:23:19;;;;;;;4.70;2.60;;;;;;;;;;5287318;28;20072;-77
2022/06/08 13:25:51;;;;;;;6.13;2.70;;;;;;;;;;5285617;28;20016;-77
2022/06/08 13:28:23;;;;;;;3.77;2.20;;;;;;;;;;5282471;28;20012;-77
2022/06/08 13:30:56;;;;;;;4.97;2.47;;;;;;;;;;5293947;28;20032;-78
2022/06/08 13:36:21;;;;;;;7.60;2.43;;;;;;;;;;5289951;28;20063;-78
2022/06/08 13:39:45;;;;;;;6.70;2.42;;;;;;;;;;5290570;28;20028;-77
2022/06/08 13:42:42;;;;;;;;;;;;;;;;;;;;;
2022/06/08 13:45:49;;;;;;;6.57;2.50;;;;;;;;;;5295435;28;20363;-77
2022/06/08 13:48:23;;;;;;;3.80;2.13;;;;;;;;;;5282679;28;20118;-75
2022/06/08 13:50:58;;;;;;;3.25;1.55;;;;;;;;;;5295772;28;20019;-76
2022/06/08 13:53:30;;;;;;;4.27;2.17;;;;;;;;;;5296024;28;20639;-78
2022/06/08 13:59:13;;;;;;;3.47;2.17;;;;;;;;;;5291193;28;20565;-77
2022/06/08 14:01:48;;;;;;;3.53;1.90;;;;;;;;;;5291280;28;20031;-78
2022/06/08 14:04:19;;;;;;;;;;;;;;;;;;5294370;28;20477;-77
2022/06/08 14:15:20;;;;;;;3.13;2.03;;;;;;;;;;5296494;28;20368;-77
2022/06/08 14:17:52;;;;;;;3.07;1.90;;;;;;;;;;5294779;28;20020;-77
2022/06/08 14:20:28;;;;;;;3.77;2.40;;;;;;;;;;5289864;28;20022;-77
2022/06/08 14:23:00;;;;;;;5.90;2.60;;;;;;;;;;5279036;28;20031;-76
2022/06/08 14:25:32;;;;;;;4.23;2.80;;;;;;;;;;5275953;28;20361;-77
2022/06/08 14:28:04;;;;;;;3.80;2.77;;;;;;;;;;5285814;28;20035;-78
2022/06/08 14:34:07;;;;;;;6.97;3.40;;;;;;;;;;5252414;28;20052;-78
2022/06/08 14:36:45;;;;;;;6.50;3.43;;;;;;;;;;5283489;28;20016;-78
2022/06/08 14:39:18;;;;;;;4.63;4.13;;;;;;;;;;5283808;28;20411;-77
2022/06/08 14:42:07;;;;;;;4.30;3.90;;;;;;;;;;5287282;28;20094;-77
2022/06/08 14:47:39;;;;;;;5.67;4.37;;;;;;;;;;5289467;28;20052;-77
2022/06/08 14:50:11;;;;;;;;;;;;;;;;;;5290679;28;20023;-78
2022/06/08 14:52:43;;;;;;;8.40;4.57;;;;;;;;;;5294692;28;20937;-78
2022/06/08 14:58:06;;;;;;;6.10;5.47;;;;;;;;;;5294067;28;20028;-78
2022/06/08 15:00:37;;;;;;;6.10;5.53;;;;;;;;;;5296323;28;20024;-79
2022/06/08 15:03:14;;;;;;;5.70;5.20;;;;;;;;;;5294418;28;20471;-78
2022/06/08 15:05:45;;;;;;;8.60;6.10;;;;;;;;;;5283704;28;20376;-78
2022/06/08 15:08:18;;;;;;;6.83;6.20;;;;;;;;;;5295087;28;20108;-78
2022/06/08 15:13:46;;;;;;;6.73;6.13;;;;;;;;;;5282112;28;20028;-76
2022/06/08 15:16:33;;;;;;;6.50;5.63;;;;;;;;;;5275994;28;20131;-76
2022/06/08 15:19:05;;;;;;;7.43;5.70;;;;;;;;;;5288570;28;21331;-76
2022/06/08 15:21:49;;;;;;;7.67;6.00;;;;;;;;;;5289390;28;20040;-77
2022/06/08 15:24:22;;;;;;;8.23;5.90;;;;;;;;;;5277203;28;20024;-78
2022/06/08 15:26:55;;;;;;;6.93;5.13;;;;;;;;;;5279302;28;20064;-77
2022/06/08 15:32:47;;;;;;;7.50;5.63;;;;;;;;;;5264255;28;20694;-77
2022/06/08 15:35:38;;;;;;;6.20;4.27;;;;;;;;;;5282558;28;20048;-77
2022/06/08 15:38:12;;;;;;;6.57;4.63;;;;;;;;;;5259857;28;20108;-78
2022/06/08 15:40:44;;;;;;;8.83;5.50;;;;;;;;;;5253765;28;20453;-77
2022/06/08 15:43:15;;;;;;;8.60;5.40;;;;;;;;;;5260120;28;20107;-78
2022/06/08 15:45:47;;;;;;;12.63;5.10;;;;;;;;;;5269084;28;20013;-77
2022/06/08 15:48:19;;;;;;;8.03;5.50;;;;;;;;;;5256692;28;20024;-78
2022/06/08 15:50:52;;;;;;;8.37;4.70;;;;;;;;;;5257271;28;20016;-77
2022/06/08 15:53:32;;;;;;;10.60;5.40;;;;;;;;;;5257692;28;20380;-77
2022/06/08 15:56:06;;;;;;;8.73;5.40;;;;;;;;;;5251359;28;20033;-77
2022/06/08 15:58:40;;;;;;;6.78;5.07;;;;;;;;;;5272734;28;20037;-77
2022/06/08 16:01:13;;;;;;;10.18;5.47;;;;;;;;;;5263414;28;21167;-76
2022/06/08 16:03:47;;;;;;;13.43;5.43;;;;;;;;;;5272816;28;20353;-77
2022/06/08 16:06:19;;;;;;;10.07;4.87;;;;;;;;;;5254074;28;20032;-77
2022/06/08 16:08:50;;;;;;;10.60;5.40;;;;;;;;;;5272700;28;20361;-77
2022/06/08 16:11:23;;;;;;;9.20;5.47;;;;;;;;;;5255806;28;20522;-77